Time;durP1;ratioP1;P1;durP2;ratioP2;P2;SDS_P1;SDS_P2;PMS_P1;PMS_P2;Temp;Humidity;BMP_temperature;BMP_pressure;BME280_temperature;BME280_humidity;BME280_pressure;Samples;Min_cycle;Max_cycle;Signal;HPM_P1;HPM_P2
2022/07/11 00:00:24;;;;;;;;;;;;;;;10.99;100.00;100067.78;3055722;19;952;-48
2022/07/11 00:01:28;;;;;;;;;;;;;;;10.99;100.00;100062.44;3055306;19;905;-48
2022/07/11 00:02:30;;;;;;;;;;;;;;;10.99;100.00;100065.09;3056026;19;968;-48
2022/07/11 00:03:35;;;;;;;;;;;;;;;10.97;100.00;100064.34;3055309;19;1063;-48
2022/07/11 00:04:37;;;;;;;;;;;;;;;10.97;100.00;100065.19;3056122;19;908;-48
2022/07/11 00:05:41;;;;;;;;;;;;;;;10.96;100.00;100066.16;3055618;19;912;-48
2022/07/11 00:06:43;;;;;;;;;;;;;;;10.95;100.00;100069.78;3055408;19;1857;-48
2022/07/11 00:07:48;;;;;;;;;;;;;;;10.96;100.00;100066.16;3055398;19;979;-48
2022/07/11 00:08:49;;;;;;;;;;;;;;;10.95;100.00;100061.78;3056046;19;888;-48
2022/07/11 00:09:54;;;;;;;;;;;;;;;10.95;100.00;100067.13;3055471;19;964;-49
2022/07/11 00:10:56;;;;;;;;;;;;;;;10.94;100.00;100064.56;3055749;19;1039;-49
2022/07/11 00:12:01;;;;;;;;;;;;;;;10.94;100.00;100067.22;3054340;19;1006;-48
2022/07/11 00:13:02;;;;;;;;;;;;;;;10.92;100.00;100066.47;3054670;19;1031;-48
2022/07/11 00:14:07;;;;;;;;;;;;;;;10.91;100.00;100062.94;3054174;19;1485;-48
2022/07/11 00:15:09;;;;;;;;;;;;;;;10.93;100.00;100066.38;3054714;19;991;-48
2022/07/11 00:16:13;;;;;;;;;;;;;;;10.92;100.00;100067.31;3055205;19;952;-48
2022/07/11 00:17:15;;;;;;;;;;;;;;;10.90;100.00;100063.91;3055525;19;985;-48
2022/07/11 00:18:20;;;;;;;;;;;;;;;10.89;100.00;100062.19;3054321;19;1655;-48
2022/07/11 00:19:22;;;;;;;;;;;;;;;10.90;100.00;100063.03;3054822;19;1016;-48
2022/07/11 00:20:26;;;;;;;;;;;;;;;10.88;100.00;100065.81;3055207;19;993;-48
2022/07/11 00:21:28;;;;;;;;;;;;;;;10.88;100.00;100065.81;3055983;19;924;-48
2022/07/11 00:22:33;;;;;;;;;;;;;;;10.86;100.00;100065.09;3054991;19;1783;-48
2022/07/11 00:23:34;;;;;;;;;;;;;;;10.86;100.00;100062.44;3055714;19;1030;-48
2022/07/11 00:24:39;;;;;;;;;;;;;;;10.83;100.00;100063.50;3055171;19;888;-48
2022/07/11 00:25:41;;;;;;;;;;;;;;;10.83;100.00;100063.50;3055485;19;960;-48
2022/07/11 00:26:46;;;;;;;;;;;;;;;10.84;100.00;100064.34;3054972;19;1845;-48
2022/07/11 00:27:47;;;;;;;;;;;;;;;10.83;100.00;100062.63;3058488;19;892;-48
2022/07/11 00:28:54;;;;;;;;;;;;;;;10.83;100.00;100062.63;3058418;19;1000;-48
2022/07/11 00:29:58;;;;;;;;;;;;;;;10.81;100.00;100070.75;3058303;19;955;-48
2022/07/11 00:31:00;;;;;;;;;;;;;;;10.83;100.00;100062.63;3058296;19;868;-48
2022/07/11 00:32:05;;;;;;;;;;;;;;;10.79;100.00;100064.66;3058396;19;953;-48
2022/07/11 00:33:07;;;;;;;;;;;;;;;10.80;100.00;100068.19;3058294;19;1004;-48
2022/07/11 00:34:11;;;;;;;;;;;;;;;10.79;100.00;100071.81;3058447;19;840;-48
2022/07/11 00:35:13;;;;;;;;;;;;;;;10.77;100.00;100066.56;3058392;19;1293;-48
2022/07/11 00:36:17;;;;;;;;;;;;;;;10.78;100.00;100075.44;3058374;19;904;-48
2022/07/11 00:37:22;;;;;;;;;;;;;;;10.77;100.00;100074.56;3058415;19;856;-47
2022/07/11 00:38:24;;;;;;;;;;;;;;;10.77;100.00;100068.38;3058877;19;857;-48
2022/07/11 00:39:28;;;;;;;;;;;;;;;10.76;100.00;100067.53;3057570;19;957;-48
2022/07/11 00:40:30;;;;;;;;;;;;;;;10.76;100.00;100066.66;3058403;19;1012;-47
2022/07/11 00:41:34;;;;;;;;;;;;;;;10.75;100.00;100065.81;3057783;19;1737;-49
2022/07/11 00:42:36;;;;;;;;;;;;;;;10.76;100.00;100066.66;3058510;19;898;-48
2022/07/11 00:43:41;;;;;;;;;;;;;;;10.74;100.00;100063.28;3058273;19;920;-48
2022/07/11 00:44:44;;;;;;;;;;;;;;;10.74;100.00;100065.94;3057950;19;917;-48
2022/07/11 00:45:51;;;;;;;;;;;;;;;10.75;100.00;100070.28;3057688;19;894;-48
2022/07/11 00:46:56;;;;;;;;;;;;;;;10.75;100.00;100064.97;3058288;19;893;-48
2022/07/11 00:47:58;;;;;;;;;;;;;;;10.74;100.00;100065.94;3057185;19;1854;-48
2022/07/11 00:49:03;;;;;;;;;;;;;;;10.72;100.00;100065.19;3057776;19;1726;-48
2022/07/11 00:50:05;;;;;;;;;;;;;;;10.72;100.00;100062.53;3058152;19;909;-49
2022/07/11 00:51:09;;;;;;;;;;;;;;;10.72;100.00;100059.84;3057941;19;927;-48
2022/07/11 00:52:11;;;;;;;;;;;;;;;10.72;100.00;100068.72;3057236;19;996;-48
2022/07/11 00:53:16;;;;;;;;;;;;;;;10.72;100.00;100066.06;3057252;19;889;-48
2022/07/11 00:54:18;;;;;;;;;;;;;;;10.72;100.00;100059.84;3057067;19;981;-48
2022/07/11 00:55:23;;;;;;;;;;;;;;;10.70;100.00;100064.44;3057267;19;1020;-48
2022/07/11 00:56:29;;;;;;;;;;;;;;;10.68;100.00;100053.88;3057372;19;940;-48
2022/07/11 00:57:34;;;;;;;;;;;;;;;10.70;100.00;100061.78;3057692;19;1248;-48
2022/07/11 00:58:36;;;;;;;;;;;;;;;10.69;100.00;100060.06;3056844;19;877;-50
2022/07/11 00:59:41;;;;;;;;;;;;;;;10.68;100.00;100056.53;3057318;19;1038;-48
2022/07/11 01:00:43;;;;;;;;;;;;;;;10.70;100.00;100059.09;3058083;19;968;-48
2022/07/11 01:01:47;;;;;;;;;;;;;;;10.69;100.00;100062.72;3056957;19;1735;-48
2022/07/11 01:02:49;;;;;;;;;;;;;;;10.71;100.00;100063.47;3057193;19;972;-48
2022/07/11 01:03:54;;;;;;;;;;;;;;;10.69;100.00;100062.72;3056921;19;1395;-48
2022/07/11 01:04:56;;;;;;;;;;;;;;;10.69;100.00;100060.06;3057121;19;1039;-48
2022/07/11 01:06:00;;;;;;;;;;;;;;;10.68;100.00;100061.88;3057942;19;976;-48
2022/07/11 01:07:02;;;;;;;;;;;;;;;10.70;100.00;100059.09;3058203;19;897;-48
2022/07/11 01:08:07;;;;;;;;;;;;;;;10.68;100.00;100059.19;3056813;19;1842;-48
2022/07/11 01:09:11;;;;;;;;;;;;;;;10.68;100.00;100058.34;3057841;19;969;-48
2022/07/11 01:10:13;;;;;;;;;;;;;;;10.66;100.00;100060.25;3056881;19;999;-48
2022/07/11 01:11:18;;;;;;;;;;;;;;;10.65;100.00;100058.56;3057178;19;1018;-48
2022/07/11 01:12:20;;;;;;;;;;;;;;;10.65;100.00;100066.56;3058051;19;1213;-48
2022/07/11 01:13:25;;;;;;;;;;;;;;;10.62;100.00;100058.78;3056745;19;1319;-48
2022/07/11 01:14:29;;;;;;;;;;;;;;;10.63;100.00;100055.13;3056941;19;905;-49
2022/07/11 01:15:33;;;;;;;;;;;;;;;10.62;100.00;100058.78;3057910;19;876;-48
2022/07/11 01:16:39;;;;;;;;;;;;;;;10.59;100.00;100059.84;3057787;19;900;-48
2022/07/11 01:17:41;;;;;;;;;;;;;;;10.59;100.00;100058.97;3058146;19;877;-48
2022/07/11 01:18:52;;;;;;;;;;;;;;;10.58;100.00;100057.28;3057479;19;937;-48
2022/07/11 01:19:54;;;;;;;;;;;;;;;10.58;100.00;100057.28;3057069;19;983;-48
2022/07/11 01:20:58;;;;;;;;;;;;;;;10.56;100.00;100064.53;3056679;19;1776;-48
2022/07/11 01:22:03;;;;;;;;;;;;;;;10.55;100.00;100061.00;3057812;19;1139;-48
2022/07/11 01:23:07;;;;;;;;;;;;;;;10.56;100.00;100061.84;3056570;19;945;-47
2022/07/11 01:24:12;;;;;;;;;;;;;;;10.55;100.00;100057.47;3056578;19;1035;-48
2022/07/11 01:25:29;;;;;;;;;;;;;;;10.53;100.00;100060.25;3057472;19;1043;-48
2022/07/11 01:26:34;;;;;;;;;;;;;;;10.54;100.00;100058.44;3057913;19;983;-49
2022/07/11 01:27:36;;;;;;;;;;;;;;;10.55;100.00;100054.81;3057214;19;1870;-50
2022/07/11 01:28:41;;;;;;;;;;;;;;;10.56;100.00;100053.84;3057647;19;1041;-48
2022/07/11 01:29:42;;;;;;;;;;;;;;;10.57;100.00;100055.56;3057779;19;885;-48
2022/07/11 01:30:47;;;;;;;;;;;;;;;10.58;100.00;100057.28;3057599;19;1044;-49
2022/07/11 01:31:49;;;;;;;;;;;;;;;10.58;100.00;100057.28;3057548;19;964;-49
2022/07/11 01:32:54;;;;;;;;;;;;;;;10.61;100.00;100057.06;3057261;19;1039;-49
2022/07/11 01:33:55;;;;;;;;;;;;;;;10.62;100.00;100048.97;3057372;19;1019;-48
2022/07/11 01:35:00;;;;;;;;;;;;;;;10.65;100.00;100045.22;3057295;19;888;-48
2022/07/11 01:36:02;;;;;;;;;;;;;;;10.68;100.00;100053.00;3057858;19;1024;-49
2022/07/11 01:37:06;;;;;;;;;;;;;;;10.70;100.00;100048.44;3057420;19;1043;-48
2022/07/11 01:38:08;;;;;;;;;;;;;;;10.73;100.00;100040.22;3056470;19;924;-48
2022/07/11 01:39:13;;;;;;;;;;;;;;;10.76;100.00;100048.84;3057341;19;1220;-48
2022/07/11 01:40:14;;;;;;;;;;;;;;;10.80;100.00;100038.81;3057342;19;1064;-48
2022/07/11 01:41:19;;;;;;;;;;;;;;;10.82;100.00;100040.44;3057393;19;1331;-48
2022/07/11 01:42:21;;;;;;;;;;;;;;;10.85;100.00;100034.03;3056993;19;924;-48
2022/07/11 01:43:25;;;;;;;;;;;;;;;10.86;100.00;100041.06;3056607;19;999;-47
2022/07/11 01:44:27;;;;;;;;;;;;;;;10.89;100.00;100040.84;3057599;19;1063;-48
2022/07/11 01:45:32;;;;;;;;;;;;;;;10.91;100.00;100040.72;3057356;19;1665;-48
2022/07/11 01:46:34;;;;;;;;;;;;;;;10.91;100.00;100041.59;3057670;19;998;-48
2022/07/11 01:47:38;;;;;;;;;;;;;;;10.91;100.00;100033.56;3057655;19;934;-48
2022/07/11 01:48:40;;;;;;;;;;;;;;;10.92;100.00;100040.63;3056864;19;1870;-48
2022/07/11 01:49:45;;;;;;;;;;;;;;;10.92;100.00;100035.28;3057308;19;1250;-47
2022/07/11 01:50:47;;;;;;;;;;;;;;;10.91;100.00;100036.25;3057871;19;948;-49
2022/07/11 01:51:51;;;;;;;;;;;;;;;10.91;100.00;100038.06;3056988;19;959;-48
2022/07/11 01:52:53;;;;;;;;;;;;;;;10.90;100.00;100031.88;3057346;19;980;-48
2022/07/11 01:53:58;;;;;;;;;;;;;;;10.90;100.00;100039.03;3056812;19;1035;-48
2022/07/11 01:54:59;;;;;;;;;;;;;;;10.88;100.00;100038.28;3057357;19;857;-48
2022/07/11 01:56:04;;;;;;;;;;;;;;;10.85;100.00;100042.03;3056988;19;1727;-48
2022/07/11 01:57:26;;;;;;;;;;;;;;;10.82;100.00;100043.09;3056243;19;1168;-48
2022/07/11 01:58:30;;;;;;;;;;;;;;;10.79;100.00;100040.63;3056550;19;980;-47
2022/07/11 01:59:32;;;;;;;;;;;;;;;10.79;100.00;100047.78;3057761;19;919;-48
2022/07/11 02:00:37;;;;;;;;;;;;;;;10.75;100.00;100041.78;3056922;19;980;-48
2022/07/11 02:01:39;;;;;;;;;;;;;;;10.73;100.00;100051.75;3057687;19;853;-47
2022/07/11 02:02:44;;;;;;;;;;;;;;;10.70;100.00;100051.09;3057263;19;895;-48
2022/07/11 02:03:45;;;;;;;;;;;;;;;10.68;100.00;100053.00;3057321;19;916;-48
2022/07/11 02:04:51;;;;;;;;;;;;;;;10.66;100.00;100052.25;3057261;19;1271;-49
2022/07/11 02:05:53;;;;;;;;;;;;;;;10.66;100.00;100060.25;3057277;19;1035;-48
2022/07/11 02:06:57;;;;;;;;;;;;;;;10.64;100.00;100056.84;3056926;19;1635;-48
2022/07/11 02:08:14;;;;;;;;;;;;;;;10.62;100.00;100056.13;3057370;19;969;-47
2022/07/11 02:09:18;;;;;;;;;;;;;;;10.61;100.00;100057.94;3056858;19;861;-48
2022/07/11 02:10:20;;;;;;;;;;;;;;;10.61;100.00;100057.94;3057389;19;924;-47
2022/07/11 02:11:25;;;;;;;;;;;;;;;10.61;100.00;100057.06;3056683;19;1631;-50
2022/07/11 02:12:26;;;;;;;;;;;;;;;10.58;100.00;100058.13;3057078;19;876;-49
2022/07/11 02:13:31;;;;;;;;;;;;;;;10.59;100.00;100064.31;3056673;19;886;-49
2022/07/11 02:14:33;;;;;;;;;;;;;;;10.59;100.00;100057.19;3057242;19;896;-48
2022/07/11 02:15:37;;;;;;;;;;;;;;;10.59;100.00;100059.84;3056680;19;1842;-48
2022/07/11 02:16:42;;;;;;;;;;;;;;;10.59;100.00;100056.31;3057222;19;981;-48
2022/07/11 02:17:44;;;;;;;;;;;;;;;10.59;100.00;100058.97;3056764;19;919;-48
2022/07/11 02:18:48;;;;;;;;;;;;;;;10.60;100.00;100066.03;3056874;19;1753;-48
2022/07/11 02:19:50;;;;;;;;;;;;;;;10.61;100.00;100060.59;3056764;19;1388;-49
2022/07/11 02:20:55;;;;;;;;;;;;;;;10.60;100.00;100058.03;3055907;19;1624;-48
2022/07/11 02:21:57;;;;;;;;;;;;;;;10.62;100.00;100061.44;3056200;19;877;-48
2022/07/11 02:23:01;;;;;;;;;;;;;;;10.62;100.00;100074.78;3056826;19;898;-48
2022/07/11 02:24:03;;;;;;;;;;;;;;;10.46;100.00;100035.81;3056684;19;1054;-49
2022/07/11 02:25:08;;;;;;;;;;;;;;;10.63;100.00;100066.66;3056629;19;1760;-48
2022/07/11 02:26:10;;;;;;;;;;;;;;;10.66;100.00;100060.25;3056594;19;950;-48
2022/07/11 02:27:14;;;;;;;;;;;;;;;10.66;100.00;100063.78;3056947;19;1612;-48
2022/07/11 02:28:19;;;;;;;;;;;;;;;10.68;100.00;100056.53;3057064;19;1321;-48
2022/07/11 02:29:22;;;;;;;;;;;;;;;10.68;100.00;100063.69;3056200;19;1846;-48
2022/07/11 02:30:27;;;;;;;;;;;;;;;10.71;100.00;100063.47;3056793;19;960;-48
2022/07/11 02:31:29;;;;;;;;;;;;;;;10.73;100.00;100061.56;3056822;19;829;-49
2022/07/11 02:32:33;;;;;;;;;;;;;;;10.75;100.00;100059.63;3056941;19;920;-48
2022/07/11 02:33:35;;;;;;;;;;;;;;;10.74;100.00;100058.78;3056556;19;1251;-48
2022/07/11 02:34:40;;;;;;;;;;;;;;;10.76;100.00;100056.84;3056562;19;948;-48
2022/07/11 02:35:45;;;;;;;;;;;;;;;10.79;100.00;100053.97;3056694;19;1036;-49
2022/07/11 02:36:47;;;;;;;;;;;;;;;10.83;100.00;100058.16;3057198;19;904;-48
2022/07/11 02:37:51;;;;;;;;;;;;;;;10.86;100.00;100054.41;3056448;19;1035;-48
2022/07/11 02:38:53;;;;;;;;;;;;;;;10.92;100.00;100051.31;3056851;19;1668;-48
2022/07/11 02:39:57;;;;;;;;;;;;;;;10.98;100.00;100050.91;3056723;19;924;-48
2022/07/11 02:42:33;;;;;;;;;;;;;;;11.10;100.00;100057.19;3050535;19;1534;-48
2022/07/11 02:43:34;;;;;;;;;;;;;;;11.14;100.00;100054.16;3055931;19;992;-49
2022/07/11 02:44:39;;;;;;;;;;;;;;;11.19;100.00;100053.84;3057059;19;947;-48
2022/07/11 02:45:43;;;;;;;;;;;;;;;11.32;100.00;100046.69;3056423;19;1058;-48
2022/07/11 02:46:45;;;;;;;;;;;;;;;11.59;100.00;100051.84;3055385;19;979;-48
2022/07/11 02:47:49;;;;;;;;;;;;;;;11.75;100.00;100051.56;3056168;19;879;-47
2022/07/11 02:48:51;;;;;;;;;;;;;;;11.85;100.00;100052.63;3056973;19;1846;-48
2022/07/11 02:49:56;;;;;;;;;;;;;;;11.99;100.00;100040.91;3054152;19;884;-48
2022/07/11 02:50:58;;;;;;;;;;;;;;;12.28;100.00;100044.94;3056840;19;860;-47
2022/07/11 02:52:02;;;;;;;;;;;;;;;12.56;100.00;100039.16;3056225;19;1206;-48
2022/07/11 02:53:04;;;;;;;;;;;;;;;12.69;100.00;100035.53;3056341;19;1050;-48
2022/07/11 02:54:08;;;;;;;;;;;;;;;12.67;100.00;100042.88;3056064;19;1177;-48
2022/07/11 02:55:11;;;;;;;;;;;;;;;13.00;100.00;100048.25;3056613;19;927;-48
2022/07/11 02:56:15;;;;;;;;;;;;;;;13.29;100.00;100046.81;3055409;19;1003;-48
2022/07/11 02:57:17;;;;;;;;;;;;;;;13.53;100.00;100051.19;3055512;19;959;-48
2022/07/11 02:58:21;;;;;;;;;;;;;;;13.72;100.00;100054.09;3056152;19;1709;-48
2022/07/11 02:59:23;;;;;;;;;;;;;;;13.90;100.00;100066.00;3056724;19;876;-48
2022/07/11 03:00:28;;;;;;;;;;;;;;;13.98;100.00;100071.59;3056151;19;971;-48
2022/07/11 03:01:30;;;;;;;;;;;;;;;13.99;100.00;100081.34;3056389;19;927;-48
2022/07/11 03:02:34;;;;;;;;;;;;;;;14.01;100.00;100082.06;3056274;19;948;-49
2022/07/11 03:03:36;;;;;;;;;;;;;;;14.11;100.00;100084.84;3056227;19;1019;-48
2022/07/11 03:04:41;;;;;;;;;;;;;;;14.35;100.00;100082.81;3056205;19;1026;-48
2022/07/11 03:05:44;;;;;;;;;;;;;;;14.70;100.00;100097.81;3055977;19;1046;-48
2022/07/11 03:06:48;;;;;;;;;;;;;;;14.84;100.00;100110.09;3056731;19;911;-48
2022/07/11 03:07:50;;;;;;;;;;;;;;;14.75;100.00;100123.28;3055941;19;1051;-48
2022/07/11 03:08:54;;;;;;;;;;;;;;;14.54;100.00;100137.69;3056607;19;915;-48
2022/07/11 03:09:56;;;;;;;;;;;;;;;14.32;100.00;100141.28;3055188;19;1851;-49
2022/07/11 03:11:00;;;;;;;;;;;;;;;14.15;100.00;100144.47;3056508;19;860;-48
2022/07/11 03:12:07;;;;;;;;;;;;;;;13.97;100.00;100160.25;3056067;19;918;-48
2022/07/11 03:13:12;;;;;;;;;;;;;;;13.80;100.00;100166.97;3056001;19;1223;-48
2022/07/11 03:14:14;;;;;;;;;;;;;;;13.66;100.00;100168.06;3056183;19;943;-48
2022/07/11 03:15:18;;;;;;;;;;;;;;;13.60;100.00;100171.25;3056521;19;897;-48
2022/07/11 03:16:22;;;;;;;;;;;;;;;13.51;100.00;100166.63;3056043;19;952;-48
2022/07/11 03:17:24;;;;;;;;;;;;;;;13.45;100.00;100171.59;3055822;19;956;-48
2022/07/11 03:18:29;;;;;;;;;;;;;;;13.43;100.00;100168.16;3057592;19;1277;-48
2022/07/11 03:19:31;;;;;;;;;;;;;;;13.37;100.00;100174.88;3056400;19;1174;-49
2022/07/11 03:20:35;;;;;;;;;;;;;;;13.35;100.00;100163.44;3055988;19;1328;-48
2022/07/11 03:21:37;;;;;;;;;;;;;;;13.34;100.00;100177.78;3056453;19;884;-48
2022/07/11 03:22:41;;;;;;;;;;;;;;;13.33;100.00;100163.53;3056124;19;1265;-48
2022/07/11 03:23:43;;;;;;;;;;;;;;;13.32;100.00;100167.19;3056205;19;1777;-48
2022/07/11 03:24:50;;;;;;;;;;;;;;;13.31;100.00;100165.47;3056210;19;849;-47
2022/07/11 03:25:52;;;;;;;;;;;;;;;13.32;100.00;100161.84;3056179;19;864;-48
2022/07/11 03:26:56;;;;;;;;;;;;;;;13.32;100.00;100163.66;3055807;19;996;-48
2022/07/11 03:27:58;;;;;;;;;;;;;;;13.32;100.00;100156.47;3056225;19;678;-48
2022/07/11 03:29:03;;;;;;;;;;;;;;;13.34;100.00;100165.25;3056017;19;876;-48
2022/07/11 03:30:05;;;;;;;;;;;;;;;13.31;100.00;100159.25;3055300;19;1842;-49
2022/07/11 03:31:10;;;;;;;;;;;;;;;13.31;100.00;100154.75;3056171;19;931;-47
2022/07/11 03:32:12;;;;;;;;;;;;;;;13.32;100.00;100156.47;3056137;19;1007;-48
2022/07/11 03:33:16;;;;;;;;;;;;;;;13.36;100.00;100148.19;3055639;19;1039;-48
2022/07/11 03:34:18;;;;;;;;;;;;;;;13.40;100.00;100157.72;3055971;19;822;-47
2022/07/11 03:36:40;;;;;;;;;;;;;;;13.46;100.00;100160.75;3056069;19;1055;-48
2022/07/11 03:37:41;;;;;;;;;;;;;;;13.51;100.00;100157.72;3055885;19;1002;-48
2022/07/11 03:38:46;;;;;;;;;;;;;;;13.56;100.00;100160.88;3056340;19;896;-48
2022/07/11 03:39:48;;;;;;;;;;;;;;;13.62;100.00;100157.72;3056134;19;860;-48
2022/07/11 03:40:53;;;;;;;;;;;;;;;13.67;100.00;100159.03;3055915;19;944;-48
2022/07/11 03:41:55;;;;;;;;;;;;;;;13.76;100.00;100159.31;3055932;19;1072;-48
2022/07/11 03:42:59;;;;;;;;;;;;;;;13.82;100.00;100156.13;3055172;19;1293;-48
2022/07/11 03:44:01;;;;;;;;;;;;;;;13.89;100.00;100160.84;3056032;19;929;-48
2022/07/11 03:45:06;;;;;;;;;;;;;;;13.97;100.00;100158.44;3056312;19;924;-48
2022/07/11 03:46:08;;;;;;;;;;;;;;;14.05;100.00;100155.97;3055915;19;1273;-48
2022/07/11 03:47:13;;;;;;;;;;;;;;;14.13;100.00;100162.56;3055798;19;956;-49
2022/07/11 03:48:15;;;;;;;;;;;;;;;14.24;100.00;100165.22;3055910;19;880;-49
2022/07/11 03:49:19;;;;;;;;;;;;;;;14.35;100.00;100165.19;3055958;19;1023;-48
2022/07/11 03:50:21;;;;;;;;;;;;;;;14.46;100.00;100159.81;3054859;19;1853;-48
2022/07/11 03:51:25;;;;;;;;;;;;;;;14.59;100.00;100165.88;3055981;19;964;-49
2022/07/11 03:52:27;;;;;;;;;;;;;;;14.70;100.00;100160.44;3055744;19;1711;-47
2022/07/11 03:53:32;;;;;;;;;;;;;;;14.80;100.00;100165.03;3055901;19;994;-48
2022/07/11 03:54:34;;;;;;;;;;;;;;;14.92;100.00;100172.06;3055855;19;964;-48
2022/07/11 03:55:38;;;;;;;;;;;;;;;15.01;100.00;100177.50;3055754;19;1070;-49
2022/07/11 03:56:40;;;;;;;;;;;;;;;15.12;100.00;100174.75;3055794;19;864;-48
2022/07/11 03:57:45;;;;;;;;;;;;;;;15.24;100.00;100180.06;3056069;19;967;-48
2022/07/11 03:58:47;;;;;;;;;;;;;;;15.37;100.00;100178.88;3055708;19;868;-48
2022/07/11 03:59:51;;;;;;;;;;;;;;;15.47;100.00;100179.78;3055670;19;933;-49
2022/07/11 04:00:55;;;;;;;;;;;;;;;15.63;100.00;100191.94;3056888;19;967;-48
2022/07/11 04:01:57;;;;;;;;;;;;;;;15.74;100.00;100189.16;3058957;19;948;-48
2022/07/11 04:03:02;;;;;;;;;;;;;;;15.89;100.00;100187.81;3057981;19;1645;-48
2022/07/11 04:04:08;;;;;;;;;;;;;;;16.01;100.00;100191.25;3060867;19;1373;-49
2022/07/11 04:05:20;;;;;;;;;;;;;;;16.12;100.00;100192.00;3059080;19;983;-48
2022/07/11 04:06:22;;;;;;;;;;;;;;;16.19;100.00;100193.13;3058807;19;895;-48
2022/07/11 04:07:28;;;;;;;;;;;;;;;16.26;100.00;100198.00;3058840;19;936;-49
2022/07/11 04:08:29;;;;;;;;;;;;;;;16.25;100.00;100198.97;3058806;19;928;-48
2022/07/11 04:09:34;;;;;;;;;;;;;;;16.21;100.00;100196.56;3058951;19;860;-48
2022/07/11 04:10:36;;;;;;;;;;;;;;;16.16;100.00;100203.34;3057802;19;1902;-48
2022/07/11 04:11:41;;;;;;;;;;;;;;;16.10;100.00;100209.28;3058844;19;908;-48
2022/07/11 04:12:43;;;;;;;;;;;;;;;16.02;100.00;100203.72;3059684;19;1710;-49
2022/07/11 04:13:47;;;;;;;;;;;;;;;15.94;100.00;100204.38;3058573;19;1414;-49
2022/07/11 04:14:49;;;;;;;;;;;;;;;15.87;100.00;100203.22;3058871;19;927;-48
2022/07/11 04:15:54;;;;;;;;;;;;;;;15.77;100.00;100203.19;3058658;19;1238;-48
2022/07/11 04:16:56;;;;;;;;;;;;;;;15.70;100.00;100206.53;3057699;19;923;-48
2022/07/11 04:18:00;;;;;;;;;;;;;;;15.62;100.00;100203.69;3058534;19;803;-48
2022/07/11 04:19:04;;;;;;;;;;;;;;;15.55;100.00;100207.91;3059077;19;1761;-48
2022/07/11 04:20:08;;;;;;;;;;;;;;;15.49;100.00;100204.72;3058647;19;951;-48
2022/07/11 04:21:11;;;;;;;;;;;;;;;15.42;100.00;100194.63;3058558;19;990;-48
2022/07/11 04:22:15;;;;;;;;;;;;;;;15.35;100.00;100196.97;3058636;19;874;-48
2022/07/11 04:23:17;;;;;;;;;;;;;;;15.30;100.00;100193.84;3058383;19;812;-48
2022/07/11 04:24:21;;;;;;;;;;;;;;;15.24;100.00;100204.25;3058918;19;1129;-48
2022/07/11 04:25:23;;;;;;;;;;;;;;;15.20;100.00;100197.47;3057819;19;1237;-49
2022/07/11 04:26:28;;;;;;;;;;;;;;;15.13;100.00;100197.13;3058235;19;892;-48
2022/07/11 04:27:30;;;;;;;;;;;;;;;15.06;100.00;100215.59;3058687;19;970;-48
2022/07/11 04:28:40;;;;;;;;;;;;;;;15.02;100.00;100208.78;3059024;19;935;-48
2022/07/11 04:29:43;;;;;;;;;;;;;;;14.99;100.00;100200.09;3058779;19;1031;-48
2022/07/11 04:30:47;;;;;;;;;;;;;;;14.94;100.00;100188.91;3057497;19;1846;-48
2022/07/11 04:31:50;;;;;;;;;;;;;;;14.91;100.00;100186.47;3057441;19;1034;-48
2022/07/11 04:32:54;;;;;;;;;;;;;;;14.81;100.00;100182.88;3057794;19;959;-48
2022/07/11 04:33:56;;;;;;;;;;;;;;;14.82;100.00;100182.75;3057640;19;900;-48
2022/07/11 04:35:00;;;;;;;;;;;;;;;14.78;100.00;100182.13;3058737;19;1279;-48
2022/07/11 04:36:02;;;;;;;;;;;;;;;14.77;100.00;100184.94;3058527;19;907;-48
2022/07/11 04:37:07;;;;;;;;;;;;;;;14.74;100.00;100180.69;3058808;19;938;-47
2022/07/11 04:38:09;;;;;;;;;;;;;;;14.74;100.00;100175.31;3058399;19;939;-47
2022/07/11 04:39:13;;;;;;;;;;;;;;;14.73;100.00;100168.22;3058834;19;990;-47
2022/07/11 04:40:17;;;;;;;;;;;;;;;14.73;100.00;100168.22;3058273;19;1019;-48
2022/07/11 04:41:21;;;;;;;;;;;;;;;14.76;100.00;100173.34;3058720;19;885;-48
2022/07/11 04:42:23;;;;;;;;;;;;;;;14.78;100.00;100166.03;3057749;19;1064;-49
2022/07/11 04:43:28;;;;;;;;;;;;;;;14.82;100.00;100165.78;3058172;19;1222;-49
2022/07/11 04:44:30;;;;;;;;;;;;;;;14.85;100.00;100154.78;3058378;19;876;-48
2022/07/11 04:45:34;;;;;;;;;;;;;;;14.89;100.00;100161.56;3058660;19;991;-47
2022/07/11 04:46:37;;;;;;;;;;;;;;;14.91;100.00;100160.47;3058209;19;1035;-49
2022/07/11 04:47:42;;;;;;;;;;;;;;;14.94;100.00;100164.72;3058156;19;1507;-48
2022/07/11 04:48:44;;;;;;;;;;;;;;;14.95;100.00;100166.44;3058247;19;956;-49
2022/07/11 04:49:50;;;;;;;;;;;;;;;14.96;100.00;100173.53;3058476;19;1010;-48
2022/07/11 04:50:53;;;;;;;;;;;;;;;14.95;100.00;100179.88;3057937;19;1854;-48
2022/07/11 04:51:58;;;;;;;;;;;;;;;14.92;100.00;100180.13;3058028;19;878;-48
2022/07/11 04:53:04;;;;;;;;;;;;;;;14.91;100.00;100183.78;3058483;19;836;-49
2022/07/11 04:54:08;;;;;;;;;;;;;;;14.88;100.00;100186.72;3058122;19;887;-48
2022/07/11 04:55:10;;;;;;;;;;;;;;;14.88;100.00;100197.47;3058444;19;959;-48
2022/07/11 04:56:15;;;;;;;;;;;;;;;14.86;100.00;100194.91;3058361;19;927;-48
2022/07/11 04:57:17;;;;;;;;;;;;;;;14.85;100.00;100197.75;3058422;19;924;-48
2022/07/11 04:58:21;;;;;;;;;;;;;;;14.80;100.00;100205.34;3058195;19;892;-48
2022/07/11 04:59:23;;;;;;;;;;;;;;;14.78;100.00;100205.47;3058376;19;1230;-48
2022/07/11 05:00:28;;;;;;;;;;;;;;;14.74;100.00;100212.91;3057898;19;1127;-48
2022/07/11 05:01:30;;;;;;;;;;;;;;;14.73;100.00;100208.53;3057536;19;1046;-48
2022/07/11 05:02:35;;;;;;;;;;;;;;;14.73;100.00;100216.56;3057231;19;923;-47
2022/07/11 05:03:37;;;;;;;;;;;;;;;14.74;100.00;100215.59;3058141;19;1284;-48
2022/07/11 05:04:41;;;;;;;;;;;;;;;14.74;100.00;100217.44;3057893;19;962;-49
2022/07/11 05:05:46;;;;;;;;;;;;;;;14.77;100.00;100218.03;3058110;19;839;-48
2022/07/11 05:06:48;;;;;;;;;;;;;;;14.79;100.00;100220.59;3057861;19;976;-48
2022/07/11 05:07:53;;;;;;;;;;;;;;;14.84;100.00;100217.53;3058148;19;872;-48
2022/07/11 05:08:55;;;;;;;;;;;;;;;14.88;100.00;100219.81;3057857;19;1450;-48
2022/07/11 05:10:00;;;;;;;;;;;;;;;14.93;100.00;100222.13;3058232;19;1007;-49
2022/07/11 05:11:02;;;;;;;;;;;;;;;14.93;100.00;100222.13;3057447;19;1842;-47
2022/07/11 05:12:07;;;;;;;;;;;;;;;14.96;100.00;100228.13;3055802;19;1521;-48
2022/07/11 05:13:08;;;;;;;;;;;;;;;14.95;100.00;100229.09;3056040;19;930;-48
2022/07/11 05:14:13;;;;;;;;;;;;;;;14.98;100.00;100236.03;3057663;19;1035;-48
2022/07/11 05:15:15;;;;;;;;;;;;;;;14.99;100.00;100237.72;3057777;19;884;-48
2022/07/11 05:16:19;;;;;;;;;;;;;;;14.97;100.00;100237.03;3058065;19;995;-48
2022/07/11 05:17:23;;;;;;;;;;;;;;;14.95;100.00;100237.16;3057465;19;1933;-48
2022/07/11 05:18:27;;;;;;;;;;;;;;;14.95;100.00;100234.47;3057594;19;1750;-48
2022/07/11 05:19:29;;;;;;;;;;;;;;;14.99;100.00;100238.59;3057197;19;877;-48
2022/07/11 05:20:34;;;;;;;;;;;;;;;15.08;100.00;100231.59;3057522;19;1078;-49
2022/07/11 05:21:35;;;;;;;;;;;;;;;15.17;100.00;100227.28;3057725;19;935;-49
2022/07/11 05:22:40;;;;;;;;;;;;;;;15.24;100.00;100225.75;3058017;19;1033;-48
2022/07/11 05:23:42;;;;;;;;;;;;;;;15.36;100.00;100239.00;3057733;19;1269;-48
2022/07/11 05:24:47;;;;;;;;;;;;;;;15.52;100.00;100240.41;3057489;19;1067;-49
2022/07/11 05:25:49;;;;;;;;;;;;;;;15.68;100.00;100240.81;3057648;19;803;-48
2022/07/11 05:26:53;;;;;;;;;;;;;;;15.87;100.00;100238.22;3058060;19;852;-48
2022/07/11 05:27:55;;;;;;;;;;;;;;;16.11;100.00;100236.06;3057736;19;929;-49
2022/07/11 05:29:00;;;;;;;;;;;;;;;16.32;100.00;100244.06;3057906;19;1341;-48
2022/07/11 05:30:02;;;;;;;;;;;;;;;16.57;100.00;100257.03;3057665;19;1666;-48
2022/07/11 05:31:06;;;;;;;;;;;;;;;16.80;100.00;100257.66;3057707;19;982;-48
2022/07/11 05:32:08;;;;;;;;;;;;;;;17.01;100.00;100264.81;3057426;19;987;-49